Arcola, Virginia
Current Conditions -  °F | °C
As of 8:52 AM on Tuesday 21 Oct 2014 (Local Time) from KIAD Reporting Station
Scattered Clouds Scattered Clouds  
Wind Chill: 52°   Ceiling: Unl
Heat Index: 52°   Visibility: 7mi
Dew Point: 48°   Wind: 3mph
Humidity: 86%   Direction: 330°NNW
Pressure: 29.88"   Gusts: NA
Location:  38.95°N, 77.53°W
Report Text: KIAD 211252Z 33003KT 7SM FEW120 SCT250 11/09 A2988 RMK AO2 SLP118 T01110089
Loading
Personal Weather Stations






























Interactive Weather Map
Tropical Storm Tracking
New forecast layout! Learn more

10-Day Weather Forecast

Advertisements
Track Severe Weather on mobile